Time;durP1;ratioP1;P1;durP2;ratioP2;P2;SDS_P1;SDS_P2;PMS_P1;PMS_P2;Temp;Humidity;BMP_temperature;BMP_pressure;BME280_temperature;BME280_humidity;BME280_pressure;Samples;Min_cycle;Max_cycle;Signal;HPM_P1;HPM_P2
2024/01/18 00:02:00;;;;;;;0.00;0.00;;;2.10;99.90;;;;;;4994666;28;20038;-63
2024/01/18 00:04:25;;;;;;;0.00;0.00;;;2.10;99.90;;;;;;5003589;28;20187;-63
2024/01/18 00:06:51;;;;;;;0.07;0.07;;;2.10;99.90;;;;;;4999416;28;20084;-64
2024/01/18 00:09:17;;;;;;;0.00;0.00;;;2.10;99.90;;;;;;4998914;28;20036;-63
2024/01/18 00:11:42;;;;;;;0.30;0.30;;;2.20;99.90;;;;;;4999177;28;20519;-63
2024/01/18 00:14:08;;;;;;;0.00;0.00;;;2.20;99.90;;;;;;5002561;28;20128;-62
2024/01/18 00:16:34;;;;;;;0.00;0.00;;;2.20;99.90;;;;;;4998443;28;20373;-63
2024/01/18 00:19:00;;;;;;;0.00;0.00;;;2.30;99.90;;;;;;4998175;28;20449;-62
2024/01/18 00:21:26;;;;;;;0.00;0.00;;;2.30;99.90;;;;;;4999094;28;20063;-64
2024/01/18 00:23:51;;;;;;;0.00;0.00;;;2.40;99.90;;;;;;5001742;28;20500;-63
2024/01/18 00:26:17;;;;;;;0.10;0.10;;;2.40;99.90;;;;;;4995420;28;21699;-65
2024/01/18 00:28:43;;;;;;;0.00;0.00;;;2.40;99.90;;;;;;5002010;28;20022;-63
2024/01/18 00:31:08;;;;;;;0.83;0.83;;;2.30;99.90;;;;;;4995369;28;20022;-63
2024/01/18 00:33:34;;;;;;;1.77;0.57;;;2.30;99.90;;;;;;4999609;28;20504;-64
2024/01/18 00:36:00;;;;;;;0.00;0.00;;;2.40;99.90;;;;;;4996500;28;20061;-63
2024/01/18 00:38:25;;;;;;;0.00;0.00;;;2.40;99.90;;;;;;5000276;28;20021;-63
2024/01/18 00:40:51;;;;;;;0.83;0.77;;;2.50;99.90;;;;;;4998171;28;20026;-67
2024/01/18 00:43:16;;;;;;;0.00;0.00;;;2.50;99.90;;;;;;4998948;28;20125;-67
2024/01/18 00:45:42;;;;;;;0.00;0.00;;;2.50;99.90;;;;;;4996907;28;20029;-67
2024/01/18 00:48:08;;;;;;;0.00;0.00;;;2.50;99.90;;;;;;4994436;28;20022;-68
2024/01/18 00:50:33;;;;;;;0.00;0.00;;;2.60;99.90;;;;;;4997564;28;20034;-67
2024/01/18 00:52:59;;;;;;;0.33;0.33;;;2.60;99.90;;;;;;4998346;28;20034;-68
2024/01/18 00:55:25;;;;;;;0.10;0.10;;;2.60;99.90;;;;;;4994768;28;20025;-67
2024/01/18 00:57:52;;;;;;;0.00;0.00;;;2.60;99.90;;;;;;4997399;28;20026;-68
2024/01/18 01:00:17;;;;;;;0.00;0.00;;;2.70;99.90;;;;;;4997474;28;20037;-67
2024/01/18 01:02:43;;;;;;;0.00;0.00;;;2.80;99.90;;;;;;4997192;28;20025;-68
2024/01/18 01:05:09;;;;;;;0.13;0.13;;;2.80;99.90;;;;;;4995632;28;20026;-67
2024/01/18 01:07:34;;;;;;;0.20;0.20;;;2.80;99.90;;;;;;4997625;28;20033;-67
2024/01/18 01:10:00;;;;;;;0.00;0.00;;;2.80;99.90;;;;;;4997690;28;20022;-67
2024/01/18 01:12:26;;;;;;;0.00;0.00;;;2.80;99.90;;;;;;4997848;28;20047;-67
2024/01/18 01:14:51;;;;;;;0.53;0.20;;;2.90;99.90;;;;;;4990555;28;20436;-68
2024/01/18 01:17:17;;;;;;;0.00;0.00;;;2.90;99.90;;;;;;4999886;28;20045;-67
2024/01/18 01:19:42;;;;;;;0.00;0.00;;;2.90;99.90;;;;;;4994459;28;20029;-67
2024/01/18 01:22:08;;;;;;;0.00;0.00;;;2.90;99.90;;;;;;4997865;28;20034;-67
2024/01/18 01:24:38;;;;;;;0.00;0.00;;;2.90;99.90;;;;;;4997478;28;20067;-67
2024/01/18 01:27:05;;;;;;;0.00;0.00;;;2.90;99.90;;;;;;4997042;28;20022;-68
2024/01/18 01:29:31;;;;;;;0.00;0.00;;;2.80;99.90;;;;;;4992563;28;20428;-68
2024/01/18 01:31:56;;;;;;;0.00;0.00;;;2.80;99.90;;;;;;4997061;28;20026;-68
2024/01/18 01:34:22;;;;;;;0.00;0.00;;;2.80;99.90;;;;;;4997037;28;20040;-68
2024/01/18 01:36:48;;;;;;;0.00;0.00;;;2.80;99.90;;;;;;4995997;28;20026;-67
2024/01/18 01:39:14;;;;;;;0.90;0.67;;;2.80;99.90;;;;;;4997022;28;20072;-67
2024/01/18 01:41:39;;;;;;;0.00;0.00;;;2.80;99.90;;;;;;4995233;28;20022;-67
2024/01/18 01:44:05;;;;;;;0.00;0.00;;;2.80;99.90;;;;;;4996200;28;20099;-67
2024/01/18 01:46:31;;;;;;;0.00;0.00;;;2.90;99.90;;;;;;4992763;28;20374;-68
2024/01/18 01:49:02;;;;;;;0.20;0.20;;;2.80;99.90;;;;;;4996269;28;20076;-68
2024/01/18 01:51:33;;;;;;;0.00;0.00;;;2.90;99.90;;;;;;4996108;28;20022;-67
2024/01/18 01:53:59;;;;;;;0.00;0.00;;;2.80;99.90;;;;;;4992268;28;20116;-67
2024/01/18 01:56:25;;;;;;;0.00;0.00;;;2.90;99.90;;;;;;5019322;28;20485;-68
2024/01/18 01:58:51;;;;;;;0.00;0.00;;;2.90;99.90;;;;;;5020344;28;20273;-67
2024/01/18 02:01:17;;;;;;;0.00;0.00;;;2.90;99.90;;;;;;4995374;28;20032;-68
2024/01/18 02:03:43;;;;;;;0.00;0.00;;;2.80;99.90;;;;;;5001159;28;20106;-68
2024/01/18 02:06:09;;;;;;;0.00;0.00;;;2.80;99.90;;;;;;4997998;28;20589;-67
2024/01/18 02:08:36;;;;;;;0.05;0.05;;;2.80;99.90;;;;;;4996811;28;20030;-67
2024/01/18 02:11:03;;;;;;;0.00;0.00;;;2.70;99.90;;;;;;4997295;28;20037;-67
2024/01/18 02:13:30;;;;;;;0.00;0.00;;;2.70;99.90;;;;;;5011827;28;20116;-67
2024/01/18 02:15:56;;;;;;;0.00;0.00;;;2.70;99.90;;;;;;4995800;28;20084;-68
2024/01/18 02:18:21;;;;;;;0.00;0.00;;;2.70;99.90;;;;;;5022058;28;20029;-68
2024/01/18 02:20:47;;;;;;;0.60;0.60;;;2.70;99.90;;;;;;4996308;28;21529;-67
2024/01/18 02:23:14;;;;;;;0.10;0.10;;;2.70;99.90;;;;;;4996397;28;20021;-68
2024/01/18 02:25:39;;;;;;;0.00;0.00;;;2.60;99.90;;;;;;4991604;28;21009;-67
2024/01/18 02:28:05;;;;;;;0.00;0.00;;;2.70;99.90;;;;;;5020031;28;20034;-68
2024/01/18 02:30:31;;;;;;;0.00;0.00;;;2.70;99.90;;;;;;4995091;28;20041;-67
2024/01/18 02:32:56;;;;;;;0.00;0.00;;;2.70;99.90;;;;;;4995889;28;20025;-68
2024/01/18 02:35:23;;;;;;;0.20;0.20;;;2.80;99.90;;;;;;4996280;28;20025;-68
2024/01/18 02:37:49;;;;;;;0.00;0.00;;;2.80;99.90;;;;;;4996283;28;20672;-67
2024/01/18 02:40:14;;;;;;;0.60;0.60;;;2.70;99.90;;;;;;4996013;28;20772;-68
2024/01/18 02:42:40;;;;;;;0.00;0.00;;;2.70;99.90;;;;;;4994982;28;20112;-67
2024/01/18 02:45:07;;;;;;;0.00;0.00;;;2.70;99.90;;;;;;4995808;28;20030;-67
2024/01/18 02:47:34;;;;;;;0.00;0.00;;;2.70;99.90;;;;;;4992524;28;21047;-68
2024/01/18 02:50:00;;;;;;;0.00;0.00;;;2.70;99.90;;;;;;4999717;28;20044;-68
2024/01/18 02:52:25;;;;;;;0.00;0.00;;;2.70;99.90;;;;;;5004195;28;20402;-68
2024/01/18 02:54:51;;;;;;;0.00;0.00;;;2.70;99.90;;;;;;4997973;28;20292;-66
2024/01/18 02:57:17;;;;;;;0.00;0.00;;;2.70;99.90;;;;;;5002110;28;20026;-67
2024/01/18 02:59:42;;;;;;;0.00;0.00;;;2.70;99.90;;;;;;5000812;28;20038;-68
2024/01/18 03:02:08;;;;;;;0.00;0.00;;;2.70;99.90;;;;;;4996005;28;20113;-64
2024/01/18 03:04:34;;;;;;;0.37;0.37;;;2.70;99.90;;;;;;5000165;28;20185;-64
2024/01/18 03:06:59;;;;;;;0.00;0.00;;;2.70;99.90;;;;;;4999896;28;20699;-63
2024/01/18 03:09:26;;;;;;;0.00;0.00;;;2.80;99.90;;;;;;4999254;28;20026;-62
2024/01/18 03:11:51;;;;;;;0.00;0.00;;;2.80;99.90;;;;;;4995969;28;20587;-63
2024/01/18 03:14:17;;;;;;;0.00;0.00;;;2.80;99.90;;;;;;5003114;28;20030;-64
2024/01/18 03:16:43;;;;;;;0.03;0.03;;;2.80;99.90;;;;;;4998681;28;20465;-64
2024/01/18 03:19:12;;;;;;;0.03;0.03;;;2.80;99.90;;;;;;5015614;28;20018;-63
2024/01/18 03:21:39;;;;;;;0.00;0.00;;;2.70;99.90;;;;;;4999524;28;20424;-65
2024/01/18 03:24:06;;;;;;;0.00;0.00;;;2.70;99.90;;;;;;5010503;28;20032;-64
2024/01/18 03:26:32;;;;;;;0.10;0.10;;;2.70;99.90;;;;;;5014530;28;20412;-63
2024/01/18 03:28:58;;;;;;;0.10;0.10;;;2.70;99.90;;;;;;4999948;28;20033;-65
2024/01/18 03:31:23;;;;;;;0.13;0.13;;;2.60;99.90;;;;;;4998106;28;20029;-63
2024/01/18 03:33:49;;;;;;;0.00;0.00;;;2.60;99.90;;;;;;4999700;28;20389;-63
2024/01/18 03:36:15;;;;;;;0.00;0.00;;;2.60;99.90;;;;;;4999619;28;20026;-64
2024/01/18 03:38:40;;;;;;;0.00;0.00;;;2.60;99.90;;;;;;5000472;28;20030;-65
2024/01/18 03:41:06;;;;;;;0.00;0.00;;;2.60;99.90;;;;;;4998848;28;20041;-64
2024/01/18 03:43:31;;;;;;;0.00;0.00;;;2.70;99.90;;;;;;4999209;28;20026;-62
2024/01/18 03:45:57;;;;;;;0.00;0.00;;;2.70;99.90;;;;;;5000225;28;20026;-65
2024/01/18 03:48:23;;;;;;;0.43;0.43;;;2.70;99.90;;;;;;4999101;28;20018;-62
2024/01/18 03:50:49;;;;;;;0.00;0.00;;;2.70;99.90;;;;;;4999070;28;20065;-65
2024/01/18 03:53:15;;;;;;;0.00;0.00;;;2.70;99.90;;;;;;5003438;28;20029;-63
2024/01/18 03:55:41;;;;;;;0.00;0.00;;;2.70;99.90;;;;;;4995586;28;20053;-64
2024/01/18 03:58:07;;;;;;;0.27;0.27;;;2.60;99.90;;;;;;4999304;28;20093;-65
2024/01/18 04:00:32;;;;;;;0.28;0.20;;;2.60;99.90;;;;;;4999741;28;20112;-65
2024/01/18 04:02:58;;;;;;;0.00;0.00;;;2.60;99.90;;;;;;5013571;28;20133;-63
2024/01/18 04:05:24;;;;;;;0.20;0.20;;;2.60;99.90;;;;;;5000119;28;20465;-63
2024/01/18 04:07:49;;;;;;;0.30;0.30;;;2.60;99.90;;;;;;5001470;28;20473;-65
2024/01/18 04:10:15;;;;;;;0.00;0.00;;;2.50;99.90;;;;;;4996116;28;20251;-64
2024/01/18 04:12:42;;;;;;;0.00;0.00;;;2.50;99.90;;;;;;4999434;28;20022;-68
2024/01/18 04:15:08;;;;;;;0.00;0.00;;;2.50;99.90;;;;;;4998785;28;20079;-68
2024/01/18 04:17:34;;;;;;;2.08;0.65;;;2.50;99.90;;;;;;4998729;28;20033;-68
2024/01/18 04:20:00;;;;;;;0.13;0.13;;;2.50;99.90;;;;;;4994589;28;20033;-68
2024/01/18 04:22:26;;;;;;;0.67;0.27;;;2.50;99.90;;;;;;4998400;28;20042;-68
2024/01/18 04:24:52;;;;;;;0.00;0.00;;;2.50;99.90;;;;;;4997439;28;20269;-68
2024/01/18 04:27:17;;;;;;;1.17;1.13;;;2.40;99.90;;;;;;4999173;28;20280;-68
2024/01/18 04:29:43;;;;;;;0.63;0.20;;;2.40;99.90;;;;;;4998023;28;20280;-68
2024/01/18 04:32:09;;;;;;;0.00;0.00;;;2.30;99.90;;;;;;4992796;28;20022;-68
2024/01/18 04:34:34;;;;;;;0.00;0.00;;;2.40;99.90;;;;;;5013432;28;20029;-68
2024/01/18 04:37:00;;;;;;;0.13;0.13;;;2.40;99.90;;;;;;4998458;28;20037;-67
2024/01/18 04:39:27;;;;;;;0.00;0.00;;;2.40;99.90;;;;;;4997055;28;20026;-68
2024/01/18 04:41:52;;;;;;;;;;;2.40;99.90;;;;;;4997487;28;20049;-68
2024/01/18 04:44:18;;;;;;;0.00;0.00;;;2.40;99.90;;;;;;4997860;28;19944;-68
2024/01/18 04:46:44;;;;;;;0.00;0.00;;;2.30;99.90;;;;;;4998332;28;20729;-67
2024/01/18 04:49:09;;;;;;;0.33;0.33;;;2.30;99.90;;;;;;4999513;28;20446;-68
2024/01/18 04:51:35;;;;;;;0.00;0.00;;;2.30;99.90;;;;;;4999533;28;20030;-67
2024/01/18 04:54:00;;;;;;;0.00;0.00;;;2.30;99.90;;;;;;4998399;28;20030;-67
2024/01/18 04:56:26;;;;;;;0.00;0.00;;;2.20;99.90;;;;;;4995466;28;20052;-68
2024/01/18 04:58:53;;;;;;;1.08;0.98;;;2.10;99.90;;;;;;4998313;28;20030;-68
2024/01/18 05:01:18;;;;;;;0.03;0.03;;;2.00;99.90;;;;;;4997750;28;20034;-67
2024/01/18 05:03:45;;;;;;;0.00;0.00;;;2.00;99.90;;;;;;4997778;28;20026;-67
2024/01/18 05:06:11;;;;;;;0.10;0.10;;;1.90;99.90;;;;;;4995215;28;20991;-68
2024/01/18 05:08:36;;;;;;;0.00;0.00;;;1.90;99.90;;;;;;4998477;28;20081;-67
2024/01/18 05:11:02;;;;;;;0.00;0.00;;;1.90;99.90;;;;;;4996739;28;20022;-67
2024/01/18 05:13:28;;;;;;;0.00;0.00;;;1.90;99.90;;;;;;4997385;28;20482;-67
2024/01/18 05:15:55;;;;;;;0.00;0.00;;;1.90;99.90;;;;;;4997465;28;20033;-67
2024/01/18 05:18:20;;;;;;;0.00;0.00;;;1.90;99.90;;;;;;4996766;28;20477;-66
2024/01/18 05:20:46;;;;;;;0.00;0.00;;;1.90;99.90;;;;;;4993910;28;20026;-64
2024/01/18 05:23:12;;;;;;;0.00;0.00;;;2.00;99.90;;;;;;4998838;28;20032;-64
2024/01/18 05:25:37;;;;;;;0.00;0.00;;;2.10;99.90;;;;;;4995356;28;20101;-63
2024/01/18 05:28:03;;;;;;;0.00;0.00;;;2.10;99.90;;;;;;5012031;28;20037;-62
2024/01/18 05:30:29;;;;;;;0.28;0.28;;;2.00;99.90;;;;;;4999447;28;20022;-63
2024/01/18 05:32:54;;;;;;;0.00;0.00;;;2.00;99.90;;;;;;4997798;28;20053;-63
2024/01/18 05:35:20;;;;;;;0.00;0.00;;;2.10;99.90;;;;;;5001191;28;20038;-65
2024/01/18 05:37:46;;;;;;;0.10;0.10;;;2.10;99.90;;;;;;4994832;28;20049;-65
2024/01/18 05:40:12;;;;;;;0.00;0.00;;;2.10;99.90;;;;;;4997775;28;20097;-62
2024/01/18 05:42:38;;;;;;;0.20;0.20;;;2.00;99.90;;;;;;4995382;28;20021;-63
2024/01/18 05:45:05;;;;;;;0.00;0.00;;;2.00;99.90;;;;;;4997274;28;20434;-65
2024/01/18 05:47:31;;;;;;;0.00;0.00;;;2.00;99.90;;;;;;4997261;28;20060;-62
2024/01/18 05:49:56;;;;;;;0.00;0.00;;;2.00;99.90;;;;;;4994212;28;20584;-64
2024/01/18 05:52:22;;;;;;;1.17;0.73;;;2.00;99.90;;;;;;4998219;28;20068;-65
2024/01/18 05:54:48;;;;;;;0.00;0.00;;;2.00;99.90;;;;;;5001394;28;20212;-62
2024/01/18 05:57:13;;;;;;;0.00;0.00;;;2.00;99.90;;;;;;4999516;28;20113;-65
2024/01/18 05:59:39;;;;;;;0.67;0.67;;;2.10;99.90;;;;;;4991490;28;20592;-62
2024/01/18 06:02:05;;;;;;;0.13;0.13;;;2.10;99.90;;;;;;4998910;28;20501;-63
2024/01/18 06:04:30;;;;;;;0.20;0.10;;;2.10;99.90;;;;;;4999816;28;20026;-64
2024/01/18 06:06:57;;;;;;;0.00;0.00;;;2.10;99.90;;;;;;4997580;28;20022;-64
2024/01/18 06:09:23;;;;;;;0.00;0.00;;;2.10;99.90;;;;;;4993329;28;20042;-66
2024/01/18 06:11:49;;;;;;;0.00;0.00;;;2.10;99.90;;;;;;4997814;28;20053;-63
2024/01/18 06:14:15;;;;;;;0.00;0.00;;;2.10;99.90;;;;;;4996569;28;20029;-64
2024/01/18 06:16:41;;;;;;;0.00;0.00;;;2.10;99.90;;;;;;4996264;28;20108;-64
2024/01/18 06:19:08;;;;;;;0.38;0.38;;;2.00;99.90;;;;;;4995844;28;20049;-63
2024/01/18 06:21:34;;;;;;;0.63;0.63;;;2.00;99.90;;;;;;4998433;28;20064;-63
2024/01/18 06:23:59;;;;;;;0.00;0.00;;;2.10;99.90;;;;;;5000649;28;20097;-63
2024/01/18 06:26:26;;;;;;;0.00;0.00;;;2.10;99.90;;;;;;5001070;28;20130;-63
2024/01/18 06:28:51;;;;;;;0.55;0.55;;;2.10;99.90;;;;;;5001146;28;20607;-64
2024/01/18 06:31:19;;;;;;;0.57;0.43;;;2.20;99.90;;;;;;5001712;28;20044;-67
2024/01/18 06:33:45;;;;;;;0.00;0.00;;;2.20;99.90;;;;;;4997904;28;20029;-67
2024/01/18 06:36:14;;;;;;;0.63;0.63;;;2.30;99.90;;;;;;5002917;28;20030;-66
2024/01/18 06:38:40;;;;;;;0.10;0.10;;;2.30;99.90;;;;;;4997043;28;20018;-67
2024/01/18 06:41:06;;;;;;;0.00;0.00;;;2.30;99.90;;;;;;5004688;28;20032;-67
2024/01/18 06:43:31;;;;;;;0.00;0.00;;;2.40;99.90;;;;;;5002548;28;20084;-67
2024/01/18 06:45:57;;;;;;;0.00;0.00;;;2.60;99.90;;;;;;4997610;28;20030;-67
2024/01/18 06:48:23;;;;;;;0.00;0.00;;;2.60;99.90;;;;;;4999856;28;20048;-67
2024/01/18 06:50:50;;;;;;;0.00;0.00;;;2.70;99.90;;;;;;5001089;28;20104;-67
2024/01/18 06:53:15;;;;;;;0.03;0.03;;;2.80;99.90;;;;;;4998950;28;20030;-67
2024/01/18 06:55:41;;;;;;;0.00;0.00;;;2.80;99.90;;;;;;5000177;28;20025;-68
2024/01/18 06:58:07;;;;;;;0.00;0.00;;;2.80;99.90;;;;;;4996321;28;20125;-66
2024/01/18 07:00:33;;;;;;;0.63;0.63;;;2.90;99.90;;;;;;5003686;28;20030;-67
2024/01/18 07:02:59;;;;;;;0.00;0.00;;;2.80;99.90;;;;;;4999862;28;20385;-68
2024/01/18 07:05:25;;;;;;;0.00;0.00;;;2.90;99.90;;;;;;5011733;28;20033;-67
2024/01/18 07:07:51;;;;;;;0.00;0.00;;;2.90;99.90;;;;;;5002817;28;20445;-67
2024/01/18 07:10:20;;;;;;;0.00;0.00;;;2.90;99.90;;;;;;4996520;28;20431;-68
2024/01/18 07:12:47;;;;;;;0.00;0.00;;;3.00;99.90;;;;;;4999452;28;20269;-67
2024/01/18 07:15:13;;;;;;;0.00;0.00;;;3.10;99.90;;;;;;4996329;28;20069;-66
2024/01/18 07:17:38;;;;;;;0.00;0.00;;;3.10;99.90;;;;;;4999433;28;20040;-68
2024/01/18 07:20:06;;;;;;;1.20;1.13;;;3.20;99.90;;;;;;4999786;28;20048;-68
2024/01/18 07:22:32;;;;;;;0.00;0.00;;;3.20;99.90;;;;;;4998731;28;20772;-68
2024/01/18 07:24:57;;;;;;;0.00;0.00;;;3.30;99.90;;;;;;4996165;28;20036;-67
2024/01/18 07:27:23;;;;;;;0.00;0.00;;;3.20;99.90;;;;;;4999927;28;20022;-67
2024/01/18 07:29:50;;;;;;;0.00;0.00;;;3.30;99.90;;;;;;4999262;28;20104;-67
2024/01/18 07:32:16;;;;;;;;;;;3.30;99.90;;;;;;4998879;28;20560;-67
2024/01/18 07:34:43;;;;;;;0.95;0.55;;;3.40;99.90;;;;;;5000070;28;20744;-68
2024/01/18 07:37:12;;;;;;;;;;;3.30;99.90;;;;;;5015596;28;20024;-67
2024/01/18 07:39:37;;;;;;;0.00;0.00;;;3.40;99.90;;;;;;4999741;28;20364;-67
2024/01/18 07:42:03;;;;;;;0.00;0.00;;;3.30;99.90;;;;;;4999014;28;20029;-67
2024/01/18 07:44:29;;;;;;;0.77;0.77;;;3.30;99.90;;;;;;4996619;28;20072;-66
2024/01/18 07:46:55;;;;;;;0.00;0.00;;;3.30;99.90;;;;;;5000065;28;21043;-65
2024/01/18 07:49:20;;;;;;;0.10;0.10;;;3.20;99.90;;;;;;4998763;28;20157;-67
2024/01/18 07:51:46;;;;;;;0.00;0.00;;;3.20;99.90;;;;;;4997916;28;20062;-67
2024/01/18 07:54:13;;;;;;;0.00;0.00;;;3.20;99.90;;;;;;4999003;28;20543;-66
2024/01/18 07:56:39;;;;;;;0.00;0.00;;;3.20;99.90;;;;;;4995974;28;20048;-67
2024/01/18 07:59:04;;;;;;;0.00;0.00;;;3.10;99.90;;;;;;4997864;28;20041;-67
2024/01/18 08:01:30;;;;;;;0.40;0.23;;;3.00;99.90;;;;;;4998740;28;20057;-67
2024/01/18 08:03:56;;;;;;;0.00;0.00;;;3.00;99.90;;;;;;5000285;28;20038;-67
2024/01/18 08:06:21;;;;;;;0.00;0.00;;;3.00;99.90;;;;;;4998947;28;20037;-67
2024/01/18 08:08:47;;;;;;;0.00;0.00;;;3.00;99.90;;;;;;4998718;28;20721;-68
2024/01/18 08:11:13;;;;;;;0.00;0.00;;;3.00;99.90;;;;;;5001334;28;20034;-68
2024/01/18 08:13:42;;;;;;;0.00;0.00;;;3.00;99.90;;;;;;5000367;28;20461;-68
2024/01/18 08:16:09;;;;;;;0.00;0.00;;;3.00;99.90;;;;;;4996708;28;20125;-67
2024/01/18 08:18:36;;;;;;;0.00;0.00;;;3.10;99.90;;;;;;5000463;28;20616;-68
2024/01/18 08:21:02;;;;;;;0.00;0.00;;;3.10;99.90;;;;;;4996845;28;20026;-67
2024/01/18 08:23:28;;;;;;;1.17;0.52;;;3.10;99.90;;;;;;4998581;28;20045;-68
2024/01/18 08:25:54;;;;;;;0.10;0.10;;;3.10;99.90;;;;;;4997120;28;20462;-67
2024/01/18 08:28:21;;;;;;;0.10;0.10;;;3.20;99.90;;;;;;5002983;28;20078;-68
2024/01/18 08:30:47;;;;;;;0.15;0.15;;;3.20;99.90;;;;;;4996672;28;20033;-68
2024/01/18 08:33:15;;;;;;;0.00;0.00;;;3.20;99.90;;;;;;4998317;28;20030;-68
2024/01/18 08:35:41;;;;;;;0.00;0.00;;;3.20;99.90;;;;;;4994033;28;20033;-68
2024/01/18 08:38:07;;;;;;;0.00;0.00;;;3.30;99.90;;;;;;4999753;28;20079;-67
2024/01/18 08:40:33;;;;;;;0.00;0.00;;;3.30;99.90;;;;;;5000355;28;20363;-68
2024/01/18 08:43:00;;;;;;;0.00;0.00;;;3.30;99.90;;;;;;4998235;28;20018;-67
2024/01/18 08:45:26;;;;;;;0.00;0.00;;;3.40;99.90;;;;;;5012843;28;20674;-68
2024/01/18 08:47:52;;;;;;;0.00;0.00;;;3.40;99.90;;;;;;4996605;28;20082;-66
2024/01/18 08:50:19;;;;;;;0.00;0.00;;;3.50;99.90;;;;;;5000014;28;21361;-68
2024/01/18 08:52:45;;;;;;;0.00;0.00;;;3.50;99.90;;;;;;4998576;28;20014;-63
2024/01/18 08:55:10;;;;;;;0.00;0.00;;;3.60;99.90;;;;;;4994592;28;20022;-62
2024/01/18 08:57:36;;;;;;;0.43;0.43;;;3.60;99.90;;;;;;4996475;28;20020;-63
2024/01/18 09:00:04;;;;;;;0.00;0.00;;;3.70;99.90;;;;;;4996219;28;20038;-63
2024/01/18 09:02:30;;;;;;;0.00;0.00;;;3.70;99.90;;;;;;4994475;28;20601;-63
2024/01/18 09:04:56;;;;;;;0.10;0.10;;;3.80;99.90;;;;;;5000607;28;20512;-64
2024/01/18 09:07:23;;;;;;;0.00;0.00;;;3.90;99.90;;;;;;4997962;28;20022;-67
2024/01/18 09:09:49;;;;;;;0.00;0.00;;;4.00;99.90;;;;;;4996449;28;20010;-62
2024/01/18 09:12:15;;;;;;;0.00;0.00;;;4.10;99.90;;;;;;4996910;28;20029;-63
2024/01/18 09:14:45;;;;;;;0.00;0.00;;;4.10;99.90;;;;;;5009395;28;20146;-62
2024/01/18 09:17:10;;;;;;;0.20;0.20;;;4.20;99.90;;;;;;4995896;28;20104;-63
2024/01/18 09:19:38;;;;;;;0.20;0.20;;;4.30;99.90;;;;;;4994455;28;20436;-64
2024/01/18 09:22:03;;;;;;;0.00;0.00;;;4.30;99.90;;;;;;4998007;28;20111;-65
2024/01/18 09:24:29;;;;;;;0.00;0.00;;;4.40;99.90;;;;;;5028333;28;20030;-63
2024/01/18 09:26:55;;;;;;;0.00;0.00;;;4.50;99.90;;;;;;4993485;28;20026;-64
2024/01/18 09:29:20;;;;;;;0.00;0.00;;;4.60;99.90;;;;;;4999901;28;20057;-63
2024/01/18 09:31:46;;;;;;;0.30;0.30;;;4.70;99.90;;;;;;4995291;28;20049;-64
2024/01/18 09:34:11;;;;;;;0.00;0.00;;;4.70;99.90;;;;;;4997479;28;20457;-64
2024/01/18 09:36:37;;;;;;;0.00;0.00;;;4.70;99.90;;;;;;4998745;28;20029;-64
2024/01/18 09:39:09;;;;;;;0.37;0.37;;;4.70;99.90;;;;;;4992702;28;20026;-64
2024/01/18 09:41:35;;;;;;;0.00;0.00;;;4.70;99.90;;;;;;5010775;28;20038;-64
2024/01/18 09:44:03;;;;;;;0.10;0.10;;;4.80;99.90;;;;;;4997255;28;20033;-64
2024/01/18 09:46:29;;;;;;;0.00;0.00;;;4.90;99.90;;;;;;5007581;28;20026;-65
2024/01/18 09:48:56;;;;;;;0.00;0.00;;;4.90;99.90;;;;;;4997210;28;20058;-65
2024/01/18 09:51:23;;;;;;;1.45;1.35;;;5.00;99.90;;;;;;4999486;28;20114;-67
2024/01/18 09:53:54;;;;;;;0.00;0.00;;;5.00;99.90;;;;;;4998779;28;20079;-64
2024/01/18 09:56:25;;;;;;;0.00;0.00;;;5.00;99.90;;;;;;5000248;28;20022;-64
2024/01/18 09:58:54;;;;;;;0.10;0.10;;;5.00;99.90;;;;;;4996302;28;20381;-65
2024/01/18 10:01:21;;;;;;;0.00;0.00;;;5.10;99.90;;;;;;4996972;28;20030;-64
2024/01/18 10:03:48;;;;;;;0.30;0.30;;;5.10;99.90;;;;;;4996794;28;20022;-65
2024/01/18 10:06:15;;;;;;;0.45;0.45;;;5.20;99.90;;;;;;4994610;28;20063;-66
2024/01/18 10:08:42;;;;;;;0.20;0.20;;;5.30;99.90;;;;;;4995218;28;20018;-64
2024/01/18 10:11:08;;;;;;;0.00;0.00;;;5.30;99.90;;;;;;4993632;28;20377;-64
2024/01/18 10:13:52;;;;;;;0.00;0.00;;;5.40;99.90;;;;;;4996738;28;20025;-64
2024/01/18 10:16:37;;;;;;;0.00;0.00;;;5.60;99.90;;;;;;4997137;28;20034;-64
2024/01/18 10:19:14;;;;;;;0.00;0.00;;;5.60;99.90;;;;;;4990408;28;20026;-64
2024/01/18 10:21:41;;;;;;;0.10;0.10;;;5.70;99.90;;;;;;5013594;28;20026;-64
2024/01/18 10:24:11;;;;;;;0.25;0.25;;;5.80;99.90;;;;;;4992821;28;20355;-65
2024/01/18 10:26:37;;;;;;;1.48;0.32;;;5.90;99.90;;;;;;5024233;28;20029;-65
2024/01/18 10:29:03;;;;;;;0.07;0.07;;;6.00;99.90;;;;;;4998290;28;20022;-64
2024/01/18 10:31:31;;;;;;;0.00;0.00;;;5.90;99.90;;;;;;4994433;28;20108;-65
2024/01/18 10:33:56;;;;;;;0.00;0.00;;;6.00;99.90;;;;;;4996486;28;20041;-64
2024/01/18 10:36:22;;;;;;;0.10;0.10;;;6.10;99.90;;;;;;4999756;28;20037;-64
2024/01/18 10:38:48;;;;;;;0.00;0.00;;;6.40;99.90;;;;;;4999813;28;20073;-65
2024/01/18 10:41:23;;;;;;;0.77;0.77;;;6.60;99.90;;;;;;4997977;28;20061;-66
2024/01/18 10:43:48;;;;;;;0.00;0.00;;;6.70;99.90;;;;;;4995364;28;20508;-64
2024/01/18 10:46:15;;;;;;;0.00;0.00;;;6.90;99.90;;;;;;4993852;28;20015;-65
2024/01/18 10:48:45;;;;;;;0.00;0.00;;;7.10;99.90;;;;;;4996203;28;20018;-64
2024/01/18 10:51:12;;;;;;;0.00;0.00;;;7.30;99.90;;;;;;4995506;28;20030;-65
2024/01/18 10:53:38;;;;;;;0.00;0.00;;;7.40;99.90;;;;;;4994235;28;20022;-64
2024/01/18 10:56:04;;;;;;;0.00;0.00;;;7.60;99.90;;;;;;4993253;28;20684;-65
2024/01/18 10:58:31;;;;;;;0.00;0.00;;;7.70;99.90;;;;;;4997850;28;20065;-65
2024/01/18 11:00:58;;;;;;;0.00;0.00;;;7.80;99.90;;;;;;4994897;28;20492;-65
2024/01/18 11:03:24;;;;;;;0.30;0.30;;;7.90;99.90;;;;;;4999340;28;20048;-64
2024/01/18 11:05:50;;;;;;;0.00;0.00;;;8.00;99.90;;;;;;4998298;28;20026;-64
2024/01/18 11:08:17;;;;;;;0.00;0.00;;;8.10;99.90;;;;;;4995789;28;20034;-64
2024/01/18 11:10:46;;;;;;;0.52;0.52;;;8.10;99.90;;;;;;4996693;28;20021;-68
2024/01/18 11:13:15;;;;;;;0.03;0.03;;;7.90;99.90;;;;;;5000327;28;20030;-68
2024/01/18 11:15:43;;;;;;;0.00;0.00;;;7.50;99.90;;;;;;4997069;28;20050;-68
2024/01/18 11:18:11;;;;;;;0.05;0.05;;;7.50;99.90;;;;;;5001170;28;20029;-68
2024/01/18 11:20:58;;;;;;;0.00;0.00;;;7.50;99.90;;;;;;5001353;28;20123;-68
2024/01/18 11:23:40;;;;;;;0.00;0.00;;;7.50;99.90;;;;;;4999225;28;20022;-68
2024/01/18 11:26:08;;;;;;;0.00;0.00;;;6.90;99.90;;;;;;4996491;28;20058;-67
2024/01/18 11:28:35;;;;;;;0.00;0.00;;;6.80;99.90;;;;;;5001035;28;20044;-68
2024/01/18 11:31:01;;;;;;;;;;;6.80;99.90;;;;;;4998172;28;20700;-68
2024/01/18 11:33:27;;;;;;;0.00;0.00;;;6.90;99.90;;;;;;4999773;28;19909;-68
2024/01/18 11:35:56;;;;;;;0.00;0.00;;;7.00;99.90;;;;;;5003314;28;20080;-68
2024/01/18 11:38:32;;;;;;;0.00;0.00;;;7.10;99.90;;;;;;5004418;28;20763;-67
2024/01/18 11:41:10;;;;;;;0.98;0.55;;;7.20;99.90;;;;;;5023879;28;20500;-68
2024/01/18 11:43:56;;;;;;;0.10;0.10;;;7.40;99.90;;;;;;4995185;28;20025;-68
2024/01/18 11:46:44;;;;;;;0.00;0.00;;;7.50;99.90;;;;;;5000167;28;20029;-68
2024/01/18 11:49:10;;;;;;;0.00;0.00;;;7.60;99.90;;;;;;5000652;28;20567;-68
2024/01/18 11:51:37;;;;;;;0.00;0.00;;;8.00;99.90;;;;;;4999892;28;20029;-67
2024/01/18 11:54:05;;;;;;;0.00;0.00;;;8.20;99.90;;;;;;5000065;28;20884;-67
2024/01/18 11:56:35;;;;;;;0.10;0.10;;;8.50;99.90;;;;;;5000375;28;20026;-68
2024/01/18 11:59:01;;;;;;;0.70;0.70;;;8.70;99.90;;;;;;4994703;28;20033;-67
2024/01/18 12:01:27;;;;;;;0.00;0.00;;;8.80;99.90;;;;;;5011901;28;20177;-67
2024/01/18 12:03:53;;;;;;;0.08;0.08;;;8.90;99.90;;;;;;5000403;28;20105;-68
2024/01/18 12:06:20;;;;;;;0.00;0.00;;;8.70;99.90;;;;;;4999535;28;20084;-67
2024/01/18 12:08:46;;;;;;;0.08;0.05;;;8.80;99.90;;;;;;4999018;28;20057;-68
2024/01/18 12:11:13;;;;;;;0.28;0.28;;;9.00;99.90;;;;;;4996958;28;20029;-68
2024/01/18 12:13:39;;;;;;;0.03;0.03;;;9.10;99.90;;;;;;4996360;28;20052;-67
2024/01/18 12:16:05;;;;;;;0.32;0.32;;;9.10;99.90;;;;;;4998676;28;20026;-67
2024/01/18 12:18:42;;;;;;;0.00;0.00;;;9.20;99.90;;;;;;4998629;28;20039;-68
2024/01/18 12:21:08;;;;;;;0.10;0.10;;;9.30;99.90;;;;;;4994634;28;20034;-68
2024/01/18 12:23:34;;;;;;;0.00;0.00;;;9.40;99.90;;;;;;4997235;28;20064;-67
2024/01/18 12:25:59;;;;;;;0.30;0.30;;;9.50;99.90;;;;;;4995453;28;20365;-67
2024/01/18 12:28:26;;;;;;;0.03;0.03;;;9.50;99.90;;;;;;5004414;28;20034;-67
2024/01/18 12:30:58;;;;;;;0.25;0.25;;;9.50;99.90;;;;;;4999011;28;20284;-67
2024/01/18 12:33:23;;;;;;;0.00;0.00;;;9.50;99.90;;;;;;4996582;28;20086;-67
2024/01/18 12:35:49;;;;;;;0.10;0.10;;;9.60;99.90;;;;;;4996404;28;20022;-67
2024/01/18 12:38:15;;;;;;;0.57;0.50;;;9.70;99.90;;;;;;4997602;28;20083;-67
2024/01/18 12:40:40;;;;;;;0.10;0.10;;;9.70;99.90;;;;;;4998196;28;20034;-67
2024/01/18 12:43:06;;;;;;;0.00;0.00;;;9.70;99.90;;;;;;4995616;28;20053;-67
2024/01/18 12:45:32;;;;;;;0.77;0.73;;;9.70;99.90;;;;;;5000054;28;20025;-67
2024/01/18 12:47:58;;;;;;;0.00;0.00;;;9.70;99.90;;;;;;4995896;28;20026;-67
2024/01/18 12:50:24;;;;;;;1.07;0.47;;;9.70;99.90;;;;;;5007247;28;20064;-68
2024/01/18 12:52:51;;;;;;;0.00;0.00;;;9.80;99.90;;;;;;4998095;28;20437;-67
2024/01/18 12:55:18;;;;;;;0.10;0.10;;;9.90;99.90;;;;;;4998112;28;20030;-69